createdAt,value
2022-12-01T00:00:12.751Z,40.72
2022-12-01T00:05:14.822Z,46.03
2022-12-01T00:10:26.138Z,42.60
2022-12-01T00:15:34.497Z,40.55
2022-12-01T00:20:36.578Z,41.30
2022-12-01T00:25:38.735Z,40.45
2022-12-01T00:30:40.772Z,46.40
2022-12-01T00:35:42.832Z,45.60
2022-12-01T00:40:44.812Z,41.40
2022-12-01T00:45:49.832Z,38.55
2022-12-01T00:50:52.671Z,46.42
2022-12-01T00:55:54.746Z,43.15
2022-12-01T01:00:59.027Z,47.35
2022-12-01T01:06:10.650Z,49.30
2022-12-01T01:11:12.616Z,43.10
2022-12-01T01:16:20.693Z,48.55
2022-12-01T01:21:23.431Z,50.55
2022-12-01T01:26:28.584Z,49.75
2022-12-01T01:31:31.390Z,47.72
2022-12-01T01:36:33.448Z,55.50
2022-12-01T01:41:35.439Z,50.75
2022-12-01T01:46:37.583Z,48.58
2022-12-01T01:51:46.581Z,48.30
2022-12-01T01:56:50.369Z,54.17
2022-12-01T02:02:00.410Z,45.78
2022-12-01T02:07:03.170Z,50.10
2022-12-01T02:12:29.995Z,48.88
2022-12-01T02:17:49.397Z,44.17
2022-12-01T02:23:16.096Z,47.92
2022-12-01T02:28:30.828Z,44.53
2022-12-01T02:33:40.442Z,47.58
2022-12-01T02:38:52.921Z,42.88
2022-12-01T02:44:11.109Z,44.75
2022-12-01T02:49:24.228Z,42.58
2022-12-01T02:54:30.510Z,46.40
2022-12-01T02:59:32.565Z,42.15
2022-12-01T03:04:55.906Z,44.03
2022-12-01T03:10:03.617Z,47.55
2022-12-01T03:15:30.718Z,46.30
2022-12-01T03:20:57.183Z,45.85
2022-12-01T03:26:03.435Z,43.97
2022-12-01T03:31:11.836Z,43.35
2022-12-01T03:36:30.222Z,44.58
2022-12-01T03:41:38.880Z,43.47
2022-12-01T03:46:48.802Z,48.55
2022-12-01T03:51:50.833Z,42.13
2022-12-01T03:56:57.156Z,42.47
2022-12-01T04:01:59.451Z,43.78
2022-12-01T04:07:01.568Z,43.05
2022-12-01T04:12:22.044Z,50.20
2022-12-01T04:17:25.111Z,50.90
2022-12-01T04:22:27.694Z,50.30
2022-12-01T04:27:29.735Z,58.22
2022-12-01T04:32:31.740Z,52.38
2022-12-01T04:37:33.859Z,50.67
2022-12-01T04:42:35.942Z,51.80
2022-12-01T04:47:37.989Z,48.33
2022-12-01T04:52:40.004Z,49.08
2022-12-01T04:57:42.177Z,50.45
2022-12-01T05:02:44.493Z,58.17
2022-12-01T05:07:46.759Z,48.63
2022-12-01T05:12:48.954Z,57.60
2022-12-01T05:17:50.989Z,49.70
2022-12-01T05:23:05.221Z,58.15
2022-12-01T05:28:08.140Z,52.25
2022-12-01T05:33:10.326Z,54.67
2022-12-01T05:38:12.394Z,52.75
2022-12-01T05:43:14.384Z,55.22
2022-12-01T05:48:17.816Z,49.67
2022-12-01T05:53:20.089Z,54.53
2022-12-01T05:58:22.325Z,57.63
2022-12-01T06:03:24.617Z,55.92
2022-12-01T06:08:26.736Z,58.30
2022-12-01T06:13:28.722Z,54.13
2022-12-01T06:18:33.866Z,53.58
2022-12-01T06:23:35.925Z,53.10
2022-12-01T06:28:37.974Z,57.25
2022-12-01T06:33:40.090Z,50.88
2022-12-01T06:38:42.193Z,53.40
2022-12-01T06:43:44.287Z,53.75
2022-12-01T06:48:49.066Z,60.00
2022-12-01T06:53:55.584Z,54.35
2022-12-01T06:58:59.028Z,58.20
2022-12-01T07:04:02.012Z,59.08
2022-12-01T07:09:04.342Z,60.17
2022-12-01T07:14:06.598Z,53.42
2022-12-01T07:19:09.266Z,61.15
2022-12-01T07:24:12.550Z,57.40
2022-12-01T07:29:14.837Z,54.58
2022-12-01T07:34:16.922Z,61.28
2022-12-01T07:39:19.021Z,58.83
2022-12-01T07:44:21.211Z,57.58
2022-12-01T07:49:23.417Z,57.45
2022-12-01T07:54:26.147Z,54.65
2022-12-01T07:59:28.142Z,55.08
2022-12-01T08:04:30.105Z,61.38
2022-12-01T08:09:32.293Z,57.33
2022-12-01T08:14:34.585Z,59.97
2022-12-01T08:19:36.727Z,55.85
2022-12-01T08:24:38.749Z,57.00
2022-12-01T08:29:40.878Z,56.05
2022-12-01T08:34:43.190Z,52.40
2022-12-01T08:39:45.170Z,52.80
2022-12-01T08:44:47.514Z,58.53
2022-12-01T08:49:50.217Z,50.05
2022-12-01T08:54:52.635Z,52.17
2022-12-01T08:59:55.280Z,55.30
2022-12-01T09:04:57.295Z,53.35
2022-12-01T09:09:59.321Z,55.80
2022-12-01T09:15:01.583Z,62.08
2022-12-01T09:20:05.236Z,56.45
2022-12-01T09:25:14.552Z,49.70
2022-12-01T09:30:16.946Z,54.17
2022-12-01T09:35:23.214Z,63.58
2022-12-01T09:40:31.374Z,58.20
2022-12-01T09:45:39.713Z,64.75
2022-12-01T09:50:43.533Z,57.88
2022-12-01T09:55:46.552Z,60.67
2022-12-01T10:00:49.915Z,56.70
2022-12-01T10:11:33.010Z,60.55
2022-12-01T10:16:45.729Z,57.38
2022-12-01T10:22:00.462Z,54.25
2022-12-01T10:27:27.338Z,57.45
2022-12-01T10:32:58.075Z,56.90
2022-12-01T10:38:03.558Z,62.53
2022-12-01T10:43:05.634Z,59.53
2022-12-01T10:48:20.149Z,64.50
2022-12-01T10:53:22.179Z,61.35
2022-12-01T10:58:24.430Z,55.72
2022-12-01T11:03:30.386Z,60.22
2022-12-01T11:08:45.367Z,68.38
2022-12-01T11:13:47.598Z,57.97
2022-12-01T11:18:49.871Z,58.00
2022-12-01T11:23:54.547Z,57.17
2022-12-01T11:29:05.916Z,59.85
2022-12-01T11:34:29.613Z,59.50
2022-12-01T11:39:35.154Z,61.70
2022-12-01T11:44:53.498Z,56.60
2022-12-01T11:50:04.229Z,57.75
2022-12-01T11:55:12.622Z,52.15
2022-12-01T12:00:21.077Z,51.55
2022-12-01T12:05:45.493Z,53.63
2022-12-01T12:11:02.521Z,55.30
2022-12-01T12:16:34.890Z,51.42
2022-12-01T12:22:14.269Z,48.45
2022-12-01T12:27:58.305Z,47.85
2022-12-01T12:33:23.996Z,53.97
2022-12-01T12:39:09.773Z,51.72
2022-12-01T12:44:45.452Z,45.25
2022-12-01T12:50:09.008Z,45.50
2022-12-01T12:55:16.983Z,42.13
2022-12-01T13:00:23.517Z,46.38
2022-12-01T13:05:40.129Z,40.33
2022-12-01T13:11:08.067Z,40.28
2022-12-01T13:16:22.829Z,40.33
2022-12-01T13:21:34.750Z,40.83
2022-12-01T13:26:37.973Z,43.90
2022-12-01T13:31:49.674Z,43.80
2022-12-01T13:36:53.711Z,45.60
2022-12-01T13:42:02.933Z,44.95
2022-12-01T13:47:24.863Z,46.20
2022-12-01T13:52:30.176Z,50.60
2022-12-01T13:57:34.330Z,56.25
2022-12-01T14:02:36.877Z,49.30
2022-12-01T14:07:40.066Z,52.28
2022-12-01T14:12:45.520Z,49.58
2022-12-01T14:17:57.471Z,45.85
2022-12-01T14:23:14.136Z,48.53
2022-12-01T14:28:17.392Z,51.58
2022-12-01T14:33:38.870Z,45.58
2022-12-01T14:38:42.066Z,45.73
2022-12-01T14:44:02.927Z,44.22
2022-12-01T14:49:05.950Z,50.50
2022-12-01T14:54:17.885Z,48.30
2022-12-01T14:59:22.642Z,53.67
2022-12-01T15:04:25.114Z,46.42
2022-12-01T15:09:35.670Z,49.00
2022-12-01T15:14:47.284Z,48.83
2022-12-01T15:19:49.960Z,46.28
2022-12-01T15:24:52.493Z,50.30
2022-12-01T15:29:56.028Z,49.22
2022-12-01T15:35:04.580Z,52.53
2022-12-01T15:40:59.846Z,51.03
2022-12-01T15:45:49.132Z,56.20
2022-12-01T15:51:08.694Z,49.90
2022-12-01T15:56:11.829Z,57.88
2022-12-01T16:01:17.023Z,55.83
2022-12-01T16:06:21.940Z,54.10
2022-12-01T16:11:24.101Z,57.47
2022-12-01T16:16:46.286Z,68.55
2022-12-01T16:21:51.420Z,59.88
2022-12-01T16:27:18.481Z,63.67
2022-12-01T16:32:29.850Z,55.55
2022-12-01T16:37:32.232Z,56.17
2022-12-01T16:42:34.266Z,57.50
2022-12-01T16:47:36.658Z,62.10
2022-12-01T16:52:46.206Z,55.88
2022-12-01T16:57:48.401Z,51.33
2022-12-01T17:02:51.089Z,53.45
2022-12-01T17:07:53.896Z,61.53
2022-12-01T17:12:56.547Z,57.60
2022-12-01T17:17:58.646Z,56.90
2022-12-01T17:23:01.046Z,62.83
2022-12-01T17:28:03.034Z,57.42
2022-12-01T17:33:05.274Z,65.68
2022-12-01T17:38:07.471Z,59.42
2022-12-01T17:43:09.430Z,62.95
2022-12-01T17:48:11.540Z,54.67
2022-12-01T17:53:13.740Z,55.08
2022-12-01T17:58:18.777Z,54.08
2022-12-01T18:03:21.283Z,56.95
2022-12-01T18:08:25.544Z,57.35
2022-12-01T18:13:27.772Z,57.30
2022-12-01T18:18:29.742Z,55.58
2022-12-01T18:23:31.884Z,58.20
2022-12-01T18:28:34.656Z,60.65
2022-12-01T18:33:38.581Z,59.22
2022-12-01T18:38:41.228Z,55.53
2022-12-01T18:43:44.297Z,61.17
2022-12-01T18:48:49.673Z,59.03
2022-12-01T18:53:54.815Z,56.08
2022-12-01T18:58:59.028Z,73.55
2022-12-01T19:04:02.299Z,61.65
2022-12-01T19:09:06.665Z,63.53
2022-12-01T19:14:15.509Z,62.75
2022-12-01T19:19:17.667Z,58.92
2022-12-01T19:24:19.945Z,60.75
2022-12-01T19:29:22.318Z,61.60
2022-12-01T19:34:24.426Z,63.47
2022-12-01T19:39:26.651Z,59.72
2022-12-01T19:44:28.806Z,56.47
2022-12-01T19:49:30.931Z,60.83
2022-12-01T19:54:34.879Z,58.05
2022-12-01T19:59:36.845Z,63.00
2022-12-01T20:04:39.994Z,61.75
2022-12-01T20:09:49.563Z,59.90
2022-12-01T20:14:52.327Z,66.97
2022-12-01T20:19:54.616Z,66.85
2022-12-01T20:24:56.585Z,65.03
2022-12-01T20:29:58.770Z,64.97
2022-12-01T20:35:01.881Z,63.88
2022-12-01T20:40:04.424Z,63.13
2022-12-01T20:45:07.353Z,55.85
2022-12-01T20:50:09.785Z,61.03
2022-12-01T20:55:11.892Z,57.50
2022-12-01T21:00:14.571Z,57.78
2022-12-01T21:05:16.781Z,58.15
2022-12-01T21:10:20.352Z,58.75
2022-12-01T21:15:25.315Z,58.65
2022-12-01T21:20:35.900Z,54.65
2022-12-01T21:25:39.348Z,57.75
2022-12-01T21:30:41.552Z,55.95
2022-12-01T21:35:43.578Z,52.53
2022-12-01T21:40:46.682Z,56.22
2022-12-01T21:46:15.364Z,59.67
2022-12-01T21:51:22.830Z,61.15
2022-12-01T21:56:27.444Z,56.30
2022-12-01T22:01:35.587Z,64.65
2022-12-01T22:06:39.912Z,58.35
2022-12-01T22:11:44.700Z,61.83
2022-12-01T22:17:05.395Z,63.15
2022-12-01T22:22:10.552Z,62.70
2022-12-01T22:27:30.887Z,59.42
2022-12-01T22:33:03.532Z,61.92
2022-12-01T22:38:05.493Z,64.13
2022-12-01T22:43:46.468Z,63.22
2022-12-01T22:48:55.691Z,64.57
2022-12-01T22:54:26.718Z,63.88
2022-12-01T22:59:34.941Z,64.73
2022-12-01T23:04:41.997Z,60.88
2022-12-01T23:09:44.518Z,59.58
2022-12-01T23:14:49.803Z,67.55
2022-12-01T23:19:58.664Z,63.15
2022-12-01T23:25:09.331Z,67.40
2022-12-01T23:30:13.218Z,61.92
2022-12-01T23:35:17.499Z,70.28
2022-12-01T23:40:33.023Z,59.53
2022-12-01T23:45:35.086Z,61.95
2022-12-01T23:50:37.128Z,68.88
2022-12-01T23:55:39.290Z,72.68
